Time;durP1;ratioP1;P1;durP2;ratioP2;P2;SDS_P1;SDS_P2;PMS_P1;PMS_P2;Temp;Humidity;BMP_temperature;BMP_pressure;BME280_temperature;BME280_humidity;BME280_pressure;Samples;Min_cycle;Max_cycle;Signal;HPM_P1;HPM_P2
2023/09/27 00:01:58;;;;;;;12.30;10.98;;;;;;;;;;4998415;28;100149;-74
2023/09/27 00:04:25;;;;;;;13.02;10.57;;;;;;;;;;5004036;28;100175;-75
2023/09/27 00:06:51;;;;;;;12.57;11.27;;;;;;;;;;4996453;28;100295;-74
2023/09/27 00:09:18;;;;;;;13.70;10.45;;;;;;;;;;4994570;28;100114;-75
2023/09/27 00:11:44;;;;;;;12.05;10.70;;;;;;;;;;5000257;28;100191;-75
2023/09/27 00:14:12;;;;;;;11.25;10.15;;;;;;;;;;4998660;28;100076;-76
2023/09/27 00:16:38;;;;;;;11.85;10.00;;;;;;;;;;4993618;28;100103;-74
2023/09/27 00:19:05;;;;;;;18.35;10.05;;;;;;;;;;4999354;28;99592;-74
2023/09/27 00:21:31;;;;;;;10.88;9.80;;;;;;;;;;4993983;28;100566;-75
2023/09/27 00:23:58;;;;;;;11.15;10.05;;;;;;;;;;4994960;28;101326;-76
2023/09/27 00:26:25;;;;;;;14.82;10.07;;;;;;;;;;4999419;28;101059;-75
2023/09/27 00:28:51;;;;;;;14.57;10.48;;;;;;;;;;4991987;28;101414;-75
2023/09/27 00:31:18;;;;;;;11.75;10.13;;;;;;;;;;4991957;28;99591;-75
2023/09/27 00:33:46;;;;;;;10.25;9.35;;;;;;;;;;4995492;28;99921;-74
2023/09/27 00:36:13;;;;;;;11.20;10.05;;;;;;;;;;5020118;27;100026;-74
2023/09/27 00:38:39;;;;;;;13.38;11.35;;;;;;;;;;4997669;28;100697;-76
2023/09/27 00:41:06;;;;;;;11.52;10.40;;;;;;;;;;4998098;28;100566;-75
2023/09/27 00:43:33;;;;;;;12.65;9.85;;;;;;;;;;5010429;27;99117;-75
2023/09/27 00:46:03;;;;;;;17.42;10.90;;;;;;;;;;4991445;28;100883;-75
2023/09/27 00:48:31;;;;;;;13.38;10.63;;;;;;;;;;5001289;28;102462;-75
2023/09/27 00:50:58;;;;;;;13.60;11.20;;;;;;;;;;4995034;28;102782;-74
2023/09/27 00:53:27;;;;;;;12.60;11.23;;;;;;;;;;4992417;28;100823;-75
2023/09/27 00:55:54;;;;;;;18.25;11.25;;;;;;;;;;4995011;28;99975;-75
2023/09/27 00:58:21;;;;;;;15.27;11.18;;;;;;;;;;4996905;28;99362;-74
2023/09/27 01:00:49;;;;;;;14.05;11.50;;;;;;;;;;4994343;28;101037;-75
2023/09/27 01:03:15;;;;;;;19.38;12.07;;;;;;;;;;4996674;28;100400;-75
2023/09/27 01:05:43;;;;;;;13.23;11.43;;;;;;;;;;5027343;27;99414;-75
2023/09/27 01:08:11;;;;;;;16.33;11.80;;;;;;;;;;4993588;28;100576;-76
2023/09/27 01:10:38;;;;;;;13.95;11.73;;;;;;;;;;4999923;28;100475;-75
2023/09/27 01:13:05;;;;;;;15.90;11.95;;;;;;;;;;4996152;28;100960;-75
2023/09/27 01:15:31;;;;;;;16.38;12.32;;;;;;;;;;4994335;28;99937;-76
2023/09/27 01:17:59;;;;;;;13.85;12.45;;;;;;;;;;4995289;28;100608;-75
2023/09/27 01:20:26;;;;;;;14.13;12.50;;;;;;;;;;4993245;28;100765;-76
2023/09/27 01:23:03;;;;;;;16.15;12.98;;;;;;;;;;4992922;28;100222;-75
2023/09/27 01:25:30;;;;;;;15.07;13.48;;;;;;;;;;4993288;28;99922;-74
2023/09/27 01:28:00;;;;;;;17.80;13.02;;;;;;;;;;4998104;28;100196;-75
2023/09/27 01:30:33;;;;;;;16.83;13.52;;;;;;;;;;4999242;28;100113;-74
2023/09/27 01:32:59;;;;;;;;;;;;;;;;;;4997856;28;98608;-75
2023/09/27 01:35:27;;;;;;;15.55;12.55;;;;;;;;;;5010853;28;101694;-75
2023/09/27 01:37:53;;;;;;;15.75;13.57;;;;;;;;;;4992813;28;100272;-75
2023/09/27 01:40:23;;;;;;;16.10;14.40;;;;;;;;;;4996739;28;100029;-75
2023/09/27 01:42:49;;;;;;;15.23;13.63;;;;;;;;;;4995711;28;99603;-74
2023/09/27 01:45:16;;;;;;;16.88;13.70;;;;;;;;;;4991482;28;100377;-74
2023/09/27 01:47:43;;;;;;;19.00;13.70;;;;;;;;;;5021294;27;100888;-76
2023/09/27 01:50:12;;;;;;;16.05;13.65;;;;;;;;;;4994628;28;102333;-74
2023/09/27 01:52:39;;;;;;;16.33;13.05;;;;;;;;;;4992639;28;99901;-74
2023/09/27 01:55:05;;;;;;;15.13;13.48;;;;;;;;;;4988494;28;99958;-75
2023/09/27 01:57:33;;;;;;;16.38;14.38;;;;;;;;;;4992390;28;100106;-74
2023/09/27 01:59:59;;;;;;;15.88;13.60;;;;;;;;;;4997290;28;100979;-75
2023/09/27 02:02:27;;;;;;;16.02;12.95;;;;;;;;;;5022415;27;101804;-76
2023/09/27 02:04:54;;;;;;;15.32;13.80;;;;;;;;;;4991379;28;100200;-75
2023/09/27 02:07:21;;;;;;;19.17;13.57;;;;;;;;;;4994594;28;99608;-75
2023/09/27 02:09:47;;;;;;;13.18;11.95;;;;;;;;;;4996416;28;100115;-76
2023/09/27 02:12:14;;;;;;;14.98;13.43;;;;;;;;;;4994774;28;100382;-75
2023/09/27 02:14:41;;;;;;;16.83;13.30;;;;;;;;;;4997311;28;101761;-77
2023/09/27 02:17:07;;;;;;;18.45;12.85;;;;;;;;;;5021151;27;99504;-75
2023/09/27 02:19:34;;;;;;;17.75;13.10;;;;;;;;;;4991704;28;100887;-76
2023/09/27 02:22:01;;;;;;;18.15;13.50;;;;;;;;;;4994729;28;98828;-75
2023/09/27 02:24:28;;;;;;;24.02;13.13;;;;;;;;;;4994398;27;98970;-74
2023/09/27 02:26:54;;;;;;;16.60;13.15;;;;;;;;;;4990833;28;101628;-75
2023/09/27 02:29:21;;;;;;;15.32;13.73;;;;;;;;;;4991211;28;100121;-75
2023/09/27 02:31:48;;;;;;;15.77;13.20;;;;;;;;;;4998121;28;99178;-75
2023/09/27 02:34:14;;;;;;;16.42;12.77;;;;;;;;;;4992825;28;100148;-76
2023/09/27 02:36:42;;;;;;;15.10;13.60;;;;;;;;;;4994108;28;100537;-76
2023/09/27 02:39:10;;;;;;;14.02;12.65;;;;;;;;;;4993491;28;100052;-74
2023/09/27 02:41:36;;;;;;;16.33;12.57;;;;;;;;;;5024510;27;100566;-74
2023/09/27 02:44:03;;;;;;;14.05;12.65;;;;;;;;;;4991951;28;99905;-74
2023/09/27 02:46:30;;;;;;;13.10;11.95;;;;;;;;;;4993093;28;100585;-75
2023/09/27 02:48:56;;;;;;;13.30;11.80;;;;;;;;;;4994845;28;98993;-74
2023/09/27 02:51:23;;;;;;;13.27;11.80;;;;;;;;;;4990583;28;100740;-76
2023/09/27 02:53:49;;;;;;;14.45;12.95;;;;;;;;;;4992364;28;100426;-75
2023/09/27 02:56:17;;;;;;;13.70;12.35;;;;;;;;;;4994665;28;99661;-75
2023/09/27 02:58:44;;;;;;;15.93;12.55;;;;;;;;;;4994348;28;100976;-75
2023/09/27 03:01:11;;;;;;;13.05;11.65;;;;;;;;;;4991816;28;101316;-75
2023/09/27 03:03:38;;;;;;;13.07;11.70;;;;;;;;;;4995573;28;99831;-75
2023/09/27 03:06:11;;;;;;;14.70;13.05;;;;;;;;;;5008395;28;101388;-74
2023/09/27 03:08:39;;;;;;;18.05;13.57;;;;;;;;;;4993983;28;100243;-75
2023/09/27 03:11:06;;;;;;;15.15;11.43;;;;;;;;;;4990364;28;99542;-73
2023/09/27 03:13:36;;;;;;;14.07;12.75;;;;;;;;;;4994735;28;99007;-76
2023/09/27 03:16:04;;;;;;;16.80;13.02;;;;;;;;;;4989574;28;100138;-76
2023/09/27 03:18:34;;;;;;;15.68;13.05;;;;;;;;;;5022011;27;104048;-75
2023/09/27 03:21:00;;;;;;;13.77;12.35;;;;;;;;;;5008519;28;102996;-75
2023/09/27 03:23:27;;;;;;;18.63;12.48;;;;;;;;;;4993499;28;101597;-75
2023/09/27 03:25:55;;;;;;;15.55;12.38;;;;;;;;;;4990725;28;99204;-73
2023/09/27 03:28:22;;;;;;;14.93;13.38;;;;;;;;;;4988432;28;100524;-74
2023/09/27 03:30:50;;;;;;;14.82;13.32;;;;;;;;;;4992593;28;100255;-74
2023/09/27 03:33:17;;;;;;;16.05;14.30;;;;;;;;;;5010522;27;99847;-75
2023/09/27 03:35:44;;;;;;;16.95;14.15;;;;;;;;;;4993033;28;101799;-74
2023/09/27 03:38:11;;;;;;;15.82;14.07;;;;;;;;;;5030280;27;100523;-77
2023/09/27 03:40:39;;;;;;;15.63;13.77;;;;;;;;;;4992415;28;101931;-75
2023/09/27 03:43:06;;;;;;;16.75;14.93;;;;;;;;;;4998029;28;99000;-75
2023/09/27 03:45:35;;;;;;;19.27;14.68;;;;;;;;;;4997055;28;102036;-75
2023/09/27 03:48:04;;;;;;;17.88;15.02;;;;;;;;;;4993090;28;100442;-75
2023/09/27 03:50:31;;;;;;;16.73;15.05;;;;;;;;;;4996343;28;101240;-74
2023/09/27 03:52:58;;;;;;;18.75;15.55;;;;;;;;;;4997573;28;100178;-75
2023/09/27 03:55:25;;;;;;;18.10;14.07;;;;;;;;;;4996069;28;101877;-75
2023/09/27 03:57:52;;;;;;;18.23;14.43;;;;;;;;;;4994972;28;100035;-76
2023/09/27 04:00:19;;;;;;;18.27;14.32;;;;;;;;;;4996767;28;101515;-74
2023/09/27 04:02:47;;;;;;;16.70;14.63;;;;;;;;;;4995460;28;101836;-75
2023/09/27 04:05:15;;;;;;;17.50;13.43;;;;;;;;;;4993527;28;100867;-75
2023/09/27 04:07:41;;;;;;;17.48;14.73;;;;;;;;;;4994799;28;101200;-74
2023/09/27 04:10:08;;;;;;;15.25;13.35;;;;;;;;;;5000014;28;99660;-75
2023/09/27 04:12:35;;;;;;;16.38;14.65;;;;;;;;;;4998292;28;100169;-76
2023/09/27 04:15:02;;;;;;;18.05;14.68;;;;;;;;;;4996627;28;100228;-75
2023/09/27 04:17:29;;;;;;;17.42;14.73;;;;;;;;;;4994592;28;99568;-75
2023/09/27 04:19:55;;;;;;;19.67;13.93;;;;;;;;;;4989383;28;100363;-75
2023/09/27 04:22:22;;;;;;;15.52;13.25;;;;;;;;;;4998095;28;99812;-74
2023/09/27 04:24:49;;;;;;;14.00;12.60;;;;;;;;;;4997836;28;100183;-74
2023/09/27 04:27:15;;;;;;;14.43;12.88;;;;;;;;;;4993829;28;100313;-75
2023/09/27 04:29:42;;;;;;;14.52;13.07;;;;;;;;;;4992911;28;100957;-75
2023/09/27 04:32:08;;;;;;;13.57;12.15;;;;;;;;;;4992921;28;100847;-75
2023/09/27 04:34:35;;;;;;;14.27;12.82;;;;;;;;;;4991353;28;99011;-73
2023/09/27 04:37:02;;;;;;;14.73;12.77;;;;;;;;;;4992596;28;100030;-76
2023/09/27 04:39:31;;;;;;;12.90;11.48;;;;;;;;;;4991553;28;100308;-72
2023/09/27 04:41:57;;;;;;;13.90;12.57;;;;;;;;;;4990310;28;100021;-75
2023/09/27 04:44:24;;;;;;;17.35;12.95;;;;;;;;;;4995955;28;100145;-74
2023/09/27 04:46:52;;;;;;;13.88;12.68;;;;;;;;;;5001560;28;99781;-75
2023/09/27 04:49:19;;;;;;;14.63;13.13;;;;;;;;;;4995655;28;99324;-76
2023/09/27 04:51:45;;;;;;;18.92;14.15;;;;;;;;;;4993653;28;100209;-75
2023/09/27 04:54:11;;;;;;;13.85;12.48;;;;;;;;;;4990730;28;100165;-74
2023/09/27 04:56:38;;;;;;;16.52;12.55;;;;;;;;;;4998075;27;99706;-75
2023/09/27 04:59:05;;;;;;;15.18;13.57;;;;;;;;;;4993483;28;100153;-74
2023/09/27 05:01:32;;;;;;;15.10;13.50;;;;;;;;;;4994608;28;100221;-74
2023/09/27 05:03:58;;;;;;;18.20;14.00;;;;;;;;;;4993152;28;100217;-75
2023/09/27 05:06:25;;;;;;;15.27;13.20;;;;;;;;;;4993459;28;102381;-75
2023/09/27 05:08:52;;;;;;;23.23;14.75;;;;;;;;;;5003644;28;100004;-76
2023/09/27 05:11:18;;;;;;;15.13;13.57;;;;;;;;;;4995931;27;99514;-75
2023/09/27 05:13:46;;;;;;;17.55;13.38;;;;;;;;;;4988982;28;102480;-74
2023/09/27 05:16:13;;;;;;;18.20;13.55;;;;;;;;;;4994528;28;100275;-76
2023/09/27 05:18:40;;;;;;;16.92;13.18;;;;;;;;;;4989943;28;100838;-75
2023/09/27 05:21:07;;;;;;;19.75;13.95;;;;;;;;;;4993724;28;100353;-75
2023/09/27 05:23:34;;;;;;;16.55;14.48;;;;;;;;;;4990837;28;100421;-73
2023/09/27 05:26:01;;;;;;;16.80;14.00;;;;;;;;;;4993937;28;99885;-75
2023/09/27 05:28:28;;;;;;;20.67;14.55;;;;;;;;;;4989722;28;99942;-74
2023/09/27 05:30:55;;;;;;;16.20;14.23;;;;;;;;;;4997647;28;100722;-74
2023/09/27 05:33:22;;;;;;;16.80;14.88;;;;;;;;;;4989601;28;99829;-76
2023/09/27 05:35:50;;;;;;;16.98;15.10;;;;;;;;;;4995364;28;100157;-74
2023/09/27 05:38:16;;;;;;;16.17;14.38;;;;;;;;;;4994643;28;100164;-75
2023/09/27 05:40:43;;;;;;;17.10;15.50;;;;;;;;;;4992152;28;100229;-74
2023/09/27 05:43:10;;;;;;;19.85;14.55;;;;;;;;;;4989314;28;101297;-76
2023/09/27 05:45:37;;;;;;;17.35;15.40;;;;;;;;;;4990298;28;100553;-74
2023/09/27 05:48:05;;;;;;;19.40;15.02;;;;;;;;;;4987823;28;99960;-75
2023/09/27 05:50:32;;;;;;;22.30;15.57;;;;;;;;;;4997312;28;99964;-75
2023/09/27 05:52:59;;;;;;;18.00;15.60;;;;;;;;;;4992518;28;100170;-75
2023/09/27 05:55:26;;;;;;;18.00;15.23;;;;;;;;;;4990658;28;99418;-74
2023/09/27 05:57:54;;;;;;;20.45;15.77;;;;;;;;;;4990677;28;100748;-76
2023/09/27 06:00:26;;;;;;;20.55;15.48;;;;;;;;;;4996593;28;100540;-74
2023/09/27 06:02:53;;;;;;;22.92;15.98;;;;;;;;;;4993377;28;100089;-75
2023/09/27 06:05:20;;;;;;;22.13;16.20;;;;;;;;;;4994344;28;100881;-75
2023/09/27 06:07:47;;;;;;;17.73;14.93;;;;;;;;;;4993492;28;101496;-74
2023/09/27 06:10:13;;;;;;;22.98;15.60;;;;;;;;;;4991409;28;101294;-73
2023/09/27 06:12:40;;;;;;;24.45;15.77;;;;;;;;;;5001060;28;100297;-76
2023/09/27 06:15:07;;;;;;;16.42;14.68;;;;;;;;;;4991137;28;100208;-73
2023/09/27 06:17:33;;;;;;;17.83;15.10;;;;;;;;;;4989605;28;99896;-73
2023/09/27 06:20:05;;;;;;;16.52;14.43;;;;;;;;;;4992294;28;100430;-74
2023/09/27 06:22:31;;;;;;;20.15;15.02;;;;;;;;;;4995126;28;101726;-74
2023/09/27 06:24:57;;;;;;;24.42;14.57;;;;;;;;;;4998459;28;100025;-74
2023/09/27 06:27:24;;;;;;;22.30;15.30;;;;;;;;;;4993919;28;100609;-74
2023/09/27 06:29:50;;;;;;;22.10;14.48;;;;;;;;;;5003418;28;100185;-73
2023/09/27 06:32:17;;;;;;;15.40;13.13;;;;;;;;;;5003332;28;100913;-74
2023/09/27 06:34:43;;;;;;;23.15;13.18;;;;;;;;;;5007440;28;99406;-76
2023/09/27 06:37:10;;;;;;;19.15;14.27;;;;;;;;;;5000996;28;99784;-76
2023/09/27 06:39:37;;;;;;;19.92;13.70;;;;;;;;;;5000106;28;100046;-74
2023/09/27 06:42:06;;;;;;;23.90;15.18;;;;;;;;;;4996240;28;99874;-75
2023/09/27 06:44:33;;;;;;;17.85;14.10;;;;;;;;;;5003193;28;99857;-75
2023/09/27 06:47:00;;;;;;;16.40;13.90;;;;;;;;;;5004415;28;100271;-75
2023/09/27 06:49:27;;;;;;;16.70;13.77;;;;;;;;;;5006356;28;99908;-73
2023/09/27 06:51:53;;;;;;;15.20;13.57;;;;;;;;;;5001356;28;98576;-75
2023/09/27 06:54:21;;;;;;;21.83;15.43;;;;;;;;;;5003979;28;100164;-75
2023/09/27 06:56:48;;;;;;;18.17;14.48;;;;;;;;;;4996934;28;100637;-74
2023/09/27 06:59:15;;;;;;;17.98;14.10;;;;;;;;;;5000436;28;100205;-75
2023/09/27 07:01:42;;;;;;;19.85;13.35;;;;;;;;;;5003131;28;99951;-74
2023/09/27 07:04:08;;;;;;;19.88;14.45;;;;;;;;;;5003317;28;100485;-75
2023/09/27 07:06:35;;;;;;;14.90;13.32;;;;;;;;;;5004230;28;99454;-74
2023/09/27 07:09:03;;;;;;;16.50;13.15;;;;;;;;;;4998014;28;100264;-73
2023/09/27 07:11:33;;;;;;;17.70;13.77;;;;;;;;;;5003700;28;100378;-76
2023/09/27 07:14:00;;;;;;;17.73;13.77;;;;;;;;;;4995440;28;99656;-75
2023/09/27 07:16:28;;;;;;;18.15;14.13;;;;;;;;;;4996998;28;99527;-76
2023/09/27 07:18:56;;;;;;;15.35;13.23;;;;;;;;;;5001068;28;99826;-75
2023/09/27 07:21:24;;;;;;;15.82;13.13;;;;;;;;;;5000118;28;100508;-74
2023/09/27 07:23:52;;;;;;;16.92;13.63;;;;;;;;;;5000206;28;99906;-75
2023/09/27 07:26:19;;;;;;;19.20;13.85;;;;;;;;;;5004595;28;100178;-74
2023/09/27 07:28:45;;;;;;;14.68;13.30;;;;;;;;;;5003029;28;99492;-75
2023/09/27 07:31:14;;;;;;;15.75;14.00;;;;;;;;;;5006570;28;100145;-74
2023/09/27 07:33:41;;;;;;;17.20;13.18;;;;;;;;;;5005801;28;99449;-76
2023/09/27 07:36:11;;;;;;;23.73;13.75;;;;;;;;;;5006921;28;99063;-76
2023/09/27 07:38:38;;;;;;;18.23;14.32;;;;;;;;;;5006680;28;98791;-74
2023/09/27 07:41:08;;;;;;;16.98;13.35;;;;;;;;;;4997340;28;99329;-77
2023/09/27 07:43:36;;;;;;;17.42;13.65;;;;;;;;;;5010666;28;100018;-75
2023/09/27 07:46:06;;;;;;;18.05;14.18;;;;;;;;;;5000453;28;100181;-74
2023/09/27 07:48:37;;;;;;;16.50;14.18;;;;;;;;;;4999300;28;100871;-75
2023/09/27 07:51:11;;;;;;;21.60;13.55;;;;;;;;;;5007522;28;99201;-75
2023/09/27 07:53:37;;;;;;;15.07;13.68;;;;;;;;;;5005704;28;100462;-76
2023/09/27 07:56:06;;;;;;;20.75;13.43;;;;;;;;;;5006467;28;100207;-74
2023/09/27 07:58:33;;;;;;;22.30;14.98;;;;;;;;;;5006687;28;100013;-75
2023/09/27 08:01:00;;;;;;;23.10;13.02;;;;;;;;;;5009412;28;100418;-74
2023/09/27 08:03:27;;;;;;;19.35;14.00;;;;;;;;;;5006244;28;100990;-74
2023/09/27 08:05:54;;;;;;;20.30;14.13;;;;;;;;;;5006905;28;99851;-74
2023/09/27 08:08:21;;;;;;;27.23;13.70;;;;;;;;;;5005765;28;99205;-74
2023/09/27 08:10:49;;;;;;;21.40;14.48;;;;;;;;;;5005597;28;100790;-74
2023/09/27 08:13:17;;;;;;;20.23;14.27;;;;;;;;;;5006398;28;99388;-74
2023/09/27 08:15:48;;;;;;;18.65;13.23;;;;;;;;;;5004922;28;99247;-74
2023/09/27 08:18:15;;;;;;;25.38;14.98;;;;;;;;;;5006049;28;100310;-74
2023/09/27 08:20:42;;;;;;;22.38;15.25;;;;;;;;;;5006137;28;99786;-75
2023/09/27 08:23:08;;;;;;;21.05;13.98;;;;;;;;;;5007523;28;99958;-74
2023/09/27 08:25:37;;;;;;;17.42;14.43;;;;;;;;;;5005969;28;100483;-74
2023/09/27 08:28:06;;;;;;;15.75;14.10;;;;;;;;;;5007836;27;98232;-74
2023/09/27 08:30:33;;;;;;;20.15;14.45;;;;;;;;;;5005155;28;100267;-74
2023/09/27 08:33:00;;;;;;;18.42;13.68;;;;;;;;;;5006675;28;100562;-74
2023/09/27 08:35:27;;;;;;;15.63;14.07;;;;;;;;;;5005802;28;100241;-75
2023/09/27 08:37:54;;;;;;;21.92;13.93;;;;;;;;;;5005466;28;100247;-74
2023/09/27 08:40:21;;;;;;;18.02;13.45;;;;;;;;;;5006294;28;98987;-75
2023/09/27 08:42:50;;;;;;;24.38;13.68;;;;;;;;;;5005359;28;99186;-75
2023/09/27 08:45:19;;;;;;;20.08;12.90;;;;;;;;;;5009880;28;100498;-74
2023/09/27 08:47:45;;;;;;;17.52;13.75;;;;;;;;;;5005919;28;100201;-75
2023/09/27 08:50:13;;;;;;;20.40;14.00;;;;;;;;;;4997957;28;100387;-76
2023/09/27 08:52:52;;;;;;;15.45;13.20;;;;;;;;;;5006618;28;99564;-75
2023/09/27 08:55:19;;;;;;;16.38;13.30;;;;;;;;;;5005627;28;99179;-75
2023/09/27 08:57:46;;;;;;;19.77;12.48;;;;;;;;;;5006624;28;100481;-74
2023/09/27 09:00:22;;;;;;;23.90;13.20;;;;;;;;;;5009664;28;99291;-74
2023/09/27 09:02:52;;;;;;;14.50;12.38;;;;;;;;;;5008886;28;98932;-75
2023/09/27 09:05:19;;;;;;;14.75;12.25;;;;;;;;;;5005603;28;99656;-75
2023/09/27 09:07:46;;;;;;;19.27;13.60;;;;;;;;;;5009093;28;99933;-75
2023/09/27 09:10:13;;;;;;;17.90;12.98;;;;;;;;;;5005286;28;100131;-75
2023/09/27 09:12:41;;;;;;;15.07;12.27;;;;;;;;;;5004755;28;99972;-75
2023/09/27 09:15:14;;;;;;;16.27;12.60;;;;;;;;;;5005713;28;99231;-75
2023/09/27 09:17:47;;;;;;;17.35;11.88;;;;;;;;;;5002458;28;99069;-75
2023/09/27 09:20:26;;;;;;;15.73;12.88;;;;;;;;;;5000088;28;100206;-74
2023/09/27 09:22:54;;;;;;;20.02;12.68;;;;;;;;;;4999677;28;100129;-74
2023/09/27 09:25:22;;;;;;;16.27;13.00;;;;;;;;;;5004201;28;100890;-75
2023/09/27 09:28:07;;;;;;;18.45;12.85;;;;;;;;;;5000723;28;100170;-75
2023/09/27 09:30:35;;;;;;;21.70;13.57;;;;;;;;;;5006824;28;99493;-74
2023/09/27 09:33:03;;;;;;;32.17;13.70;;;;;;;;;;5004284;28;99953;-75
2023/09/27 09:35:31;;;;;;;17.73;12.35;;;;;;;;;;5003123;28;100980;-75
2023/09/27 09:37:58;;;;;;;15.15;12.82;;;;;;;;;;5006730;28;99933;-75
2023/09/27 09:40:25;;;;;;;17.42;13.05;;;;;;;;;;5006181;28;100198;-75
2023/09/27 09:42:51;;;;;;;15.45;12.57;;;;;;;;;;5005702;28;99985;-74
2023/09/27 09:45:19;;;;;;;18.30;11.77;;;;;;;;;;5004117;28;99156;-73
2023/09/27 09:47:46;;;;;;;16.67;10.93;;;;;;;;;;4999980;28;99225;-75
2023/09/27 09:50:19;;;;;;;13.65;11.23;;;;;;;;;;5004579;28;99839;-76
2023/09/27 09:52:57;;;;;;;15.38;10.25;;;;;;;;;;5007852;28;100541;-74
2023/09/27 09:55:29;;;;;;;16.00;11.02;;;;;;;;;;4998007;28;100007;-75
2023/09/27 09:58:29;;;;;;;13.40;10.87;;;;;;;;;;5000686;28;99533;-75
2023/09/27 10:00:56;;;;;;;12.23;11.05;;;;;;;;;;5004450;28;98903;-73
2023/09/27 10:03:23;;;;;;;15.57;10.82;;;;;;;;;;5003990;28;99158;-73
2023/09/27 10:05:51;;;;;;;14.70;10.68;;;;;;;;;;5004670;28;100099;-74
2023/09/27 10:08:18;;;;;;;17.27;11.90;;;;;;;;;;5000413;28;99087;-74
2023/09/27 10:10:45;;;;;;;12.13;10.80;;;;;;;;;;5004319;28;98884;-75
2023/09/27 10:13:13;;;;;;;25.00;11.25;;;;;;;;;;5007164;28;99497;-76
2023/09/27 10:15:40;;;;;;;15.75;11.35;;;;;;;;;;5002750;28;100384;-74
2023/09/27 10:18:22;;;;;;;19.42;10.98;;;;;;;;;;5004231;28;100683;-73
2023/09/27 10:21:00;;;;;;;15.17;10.20;;;;;;;;;;5004623;28;100274;-73
2023/09/27 10:23:32;;;;;;;19.80;11.70;;;;;;;;;;4998526;28;99405;-75
2023/09/27 10:26:17;;;;;;;16.92;11.40;;;;;;;;;;4995420;28;99833;-74
2023/09/27 10:29:03;;;;;;;13.93;10.80;;;;;;;;;;5001166;28;99131;-75
2023/09/27 10:31:31;;;;;;;11.52;10.05;;;;;;;;;;5012275;28;100243;-75
2023/09/27 10:33:58;;;;;;;16.02;9.82;;;;;;;;;;5004609;28;99675;-74
2023/09/27 10:36:24;;;;;;;12.57;9.60;;;;;;;;;;5006640;28;100441;-75
2023/09/27 10:38:51;;;;;;;15.93;10.80;;;;;;;;;;5007657;28;100534;-75
2023/09/27 10:41:38;;;;;;;19.05;9.38;;;;;;;;;;5005075;28;100441;-75
2023/09/27 10:44:05;;;;;;;11.20;9.52;;;;;;;;;;5003494;28;99869;-76
2023/09/27 10:46:48;;;;;;;16.27;9.63;;;;;;;;;;5003428;28;99321;-74
2023/09/27 10:49:19;;;;;;;15.73;9.15;;;;;;;;;;5003339;28;100009;-75
2023/09/27 10:51:46;;;;;;;11.02;9.65;;;;;;;;;;4996689;28;100138;-75
2023/09/27 10:54:26;;;;;;;11.73;9.73;;;;;;;;;;5004052;28;100618;-75
2023/09/27 10:56:58;;;;;;;15.65;9.90;;;;;;;;;;5003282;28;100183;-76
2023/09/27 10:59:27;;;;;;;13.25;9.32;;;;;;;;;;5008177;28;99000;-75
2023/09/27 11:01:55;;;;;;;13.48;9.00;;;;;;;;;;5003794;28;99961;-75
2023/09/27 11:04:26;;;;;;;14.48;9.95;;;;;;;;;;5002482;28;100232;-74
2023/09/27 11:06:53;;;;;;;12.52;8.90;;;;;;;;;;4994559;28;103205;-75
2023/09/27 11:09:19;;;;;;;12.70;10.30;;;;;;;;;;5003180;28;99099;-75
2023/09/27 11:11:50;;;;;;;10.40;9.00;;;;;;;;;;5002648;28;100165;-77
2023/09/27 11:14:31;;;;;;;13.35;8.70;;;;;;;;;;5003846;28;100114;-75
2023/09/27 11:17:15;;;;;;;16.75;8.80;;;;;;;;;;4995889;28;100522;-75
2023/09/27 11:19:43;;;;;;;8.60;7.78;;;;;;;;;;5000507;28;99839;-75
2023/09/27 11:22:09;;;;;;;8.85;7.85;;;;;;;;;;5007738;28;99847;-74
2023/09/27 11:24:40;;;;;;;8.55;7.65;;;;;;;;;;5003162;28;100287;-74
2023/09/27 11:27:07;;;;;;;11.63;7.10;;;;;;;;;;4997080;28;99891;-73
2023/09/27 11:29:34;;;;;;;10.50;7.70;;;;;;;;;;5003399;28;100394;-75
2023/09/27 11:32:01;;;;;;;13.05;7.25;;;;;;;;;;4994364;28;100626;-76
2023/09/27 11:34:28;;;;;;;9.15;6.72;;;;;;;;;;5003903;28;99519;-76
2023/09/27 11:36:55;;;;;;;15.43;6.78;;;;;;;;;;5003962;28;100364;-75
2023/09/27 11:39:28;;;;;;;7.15;6.45;;;;;;;;;;5002826;28;100265;-74
2023/09/27 11:42:01;;;;;;;6.55;5.90;;;;;;;;;;5003321;28;100433;-75
2023/09/27 11:44:27;;;;;;;5.97;5.40;;;;;;;;;;5006728;28;99063;-74
2023/09/27 11:47:08;;;;;;;7.97;4.45;;;;;;;;;;5002260;28;100615;-75
2023/09/27 11:49:35;;;;;;;11.77;4.32;;;;;;;;;;5003788;28;100303;-75
2023/09/27 11:52:02;;;;;;;9.23;4.90;;;;;;;;;;5003362;28;99170;-76
2023/09/27 11:54:29;;;;;;;4.65;4.15;;;;;;;;;;5005691;28;100219;-76
2023/09/27 11:56:56;;;;;;;4.68;4.05;;;;;;;;;;5005993;28;100050;-75
2023/09/27 11:59:23;;;;;;;7.55;3.92;;;;;;;;;;5006609;28;100855;-75
2023/09/27 12:01:50;;;;;;;8.20;3.97;;;;;;;;;;5005859;28;100340;-75
2023/09/27 12:04:17;;;;;;;6.13;4.35;;;;;;;;;;4998432;28;99926;-75
2023/09/27 12:06:43;;;;;;;5.13;4.25;;;;;;;;;;5008794;28;99518;-75
2023/09/27 12:09:12;;;;;;;5.18;4.72;;;;;;;;;;5006884;28;100102;-75
2023/09/27 12:11:39;;;;;;;8.50;4.60;;;;;;;;;;5006729;28;100094;-75
2023/09/27 12:14:07;;;;;;;4.78;4.28;;;;;;;;;;5006990;28;99006;-74
2023/09/27 12:16:34;;;;;;;4.57;4.10;;;;;;;;;;5005661;28;100064;-75
2023/09/27 12:19:02;;;;;;;6.72;4.32;;;;;;;;;;5006882;28;100483;-75
2023/09/27 12:21:34;;;;;;;6.13;3.80;;;;;;;;;;5005476;28;101058;-75
2023/09/27 12:24:02;;;;;;;12.15;4.43;;;;;;;;;;5007359;28;100230;-75
2023/09/27 12:26:30;;;;;;;16.98;4.05;;;;;;;;;;5007830;28;101202;-74
2023/09/27 12:28:56;;;;;;;5.72;3.97;;;;;;;;;;5005688;28;100367;-76
2023/09/27 12:31:23;;;;;;;8.73;3.50;;;;;;;;;;5005715;28;101125;-74
2023/09/27 12:33:49;;;;;;;6.93;4.10;;;;;;;;;;5006602;28;100270;-75
2023/09/27 12:36:16;;;;;;;5.05;4.47;;;;;;;;;;5004505;28;99779;-75
2023/09/27 12:38:43;;;;;;;6.00;3.95;;;;;;;;;;5006890;28;98956;-74
2023/09/27 12:41:10;;;;;;;4.90;4.03;;;;;;;;;;4999006;28;100164;-74
2023/09/27 12:43:39;;;;;;;4.32;3.55;;;;;;;;;;5005065;28;99904;-74
2023/09/27 12:46:06;;;;;;;6.45;4.07;;;;;;;;;;5005534;28;101671;-74
2023/09/27 12:48:32;;;;;;;5.10;3.60;;;;;;;;;;5008413;28;99382;-73
2023/09/27 12:51:00;;;;;;;11.35;3.53;;;;;;;;;;5004909;28;98954;-73
2023/09/27 12:53:29;;;;;;;5.25;3.35;;;;;;;;;;4997217;28;100328;-75
2023/09/27 12:55:56;;;;;;;5.13;3.58;;;;;;;;;;5004971;28;99305;-72
2023/09/27 12:58:22;;;;;;;5.20;4.80;;;;;;;;;;5005575;28;100125;-75
2023/09/27 13:00:48;;;;;;;7.03;4.75;;;;;;;;;;5005175;28;99823;-75
2023/09/27 13:03:15;;;;;;;5.25;4.75;;;;;;;;;;5004663;28;100657;-74
2023/09/27 13:05:42;;;;;;;4.95;4.45;;;;;;;;;;5004647;28;99809;-75
2023/09/27 13:08:09;;;;;;;4.72;4.43;;;;;;;;;;5002849;28;99722;-74
2023/09/27 13:10:36;;;;;;;7.30;3.92;;;;;;;;;;5001249;28;100981;-74
2023/09/27 13:13:03;;;;;;;8.98;4.40;;;;;;;;;;5008814;28;99653;-75
2023/09/27 13:15:30;;;;;;;7.35;5.20;;;;;;;;;;5001956;28;100339;-75
2023/09/27 13:17:56;;;;;;;5.22;3.95;;;;;;;;;;4989052;28;100314;-75
2023/09/27 13:20:23;;;;;;;10.23;5.32;;;;;;;;;;4987753;28;100486;-73
2023/09/27 13:22:49;;;;;;;10.40;4.82;;;;;;;;;;4994513;28;99285;-74
2023/09/27 13:25:16;;;;;;;4.20;3.90;;;;;;;;;;4990548;28;99252;-75
2023/09/27 13:27:44;;;;;;;5.28;4.25;;;;;;;;;;4992655;28;99871;-74
2023/09/27 13:30:13;;;;;;;7.55;4.40;;;;;;;;;;4995007;28;99160;-74
2023/09/27 13:33:02;;;;;;;5.95;4.38;;;;;;;;;;5004388;28;99098;-73
2023/09/27 13:35:29;;;;;;;11.13;4.82;;;;;;;;;;4992776;28;101103;-74
2023/09/27 13:37:58;;;;;;;6.00;4.45;;;;;;;;;;4996299;28;100580;-75
2023/09/27 13:40:25;;;;;;;11.85;7.05;;;;;;;;;;4993779;28;99713;-72
2023/09/27 13:42:51;;;;;;;4.47;3.53;;;;;;;;;;4995246;28;100370;-74
2023/09/27 13:45:18;;;;;;;4.95;3.60;;;;;;;;;;5006967;28;99909;-74
2023/09/27 13:47:46;;;;;;;6.32;4.50;;;;;;;;;;5004767;28;99482;-74
2023/09/27 13:50:12;;;;;;;5.22;3.75;;;;;;;;;;5004605;28;98937;-74
2023/09/27 13:52:40;;;;;;;5.50;4.63;;;;;;;;;;5004664;28;100501;-74
2023/09/27 13:55:11;;;;;;;4.32;3.75;;;;;;;;;;5004329;28;100187;-75
2023/09/27 13:57:41;;;;;;;6.65;3.35;;;;;;;;;;5004091;28;100774;-76
2023/09/27 14:00:08;;;;;;;4.60;3.72;;;;;;;;;;5003441;28;100165;-77
2023/09/27 14:02:37;;;;;;;6.45;4.10;;;;;;;;;;4996089;28;99438;-75
2023/09/27 14:05:08;;;;;;;5.30;3.80;;;;;;;;;;5002294;28;101757;-78
2023/09/27 14:07:34;;;;;;;8.82;3.85;;;;;;;;;;5003579;28;100220;-74
2023/09/27 14:10:01;;;;;;;6.47;4.53;;;;;;;;;;5001748;28;99993;-73
2023/09/27 14:12:27;;;;;;;10.38;3.92;;;;;;;;;;5003495;28;99811;-72
2023/09/27 14:14:54;;;;;;;8.00;4.75;;;;;;;;;;4984857;28;101978;-74
2023/09/27 14:17:21;;;;;;;13.55;6.70;;;;;;;;;;5005958;28;99220;-74
2023/09/27 14:19:47;;;;;;;4.80;4.40;;;;;;;;;;5005238;28;100413;-74
2023/09/27 14:22:14;;;;;;;9.88;4.60;;;;;;;;;;5003453;28;99928;-74